createdAt,value
2023-02-23T00:01:22.190Z,47.43
2023-02-23T00:04:29.828Z,47.43
2023-02-23T00:07:36.914Z,47.96
2023-02-23T00:10:44.633Z,49.27
2023-02-23T00:13:54.284Z,50.58
2023-02-23T00:17:01.477Z,50.31
2023-02-23T00:20:12.835Z,52.11
2023-02-23T00:23:19.409Z,48.16
2023-02-23T00:26:31.094Z,44.71
2023-02-23T00:29:40.694Z,42.08
2023-02-23T00:32:47.220Z,39.17
2023-02-23T00:35:55.631Z,36.93
2023-02-23T00:39:06.512Z,35.90
2023-02-23T00:42:13.779Z,34.75
2023-02-23T00:45:22.238Z,32.76
2023-02-23T00:48:28.891Z,32.23
2023-02-23T00:51:34.798Z,31.90
2023-02-23T00:54:41.416Z,30.07
2023-02-23T00:57:47.343Z,29.73
2023-02-23T01:00:57.203Z,30.83
2023-02-23T01:04:04.818Z,30.35
2023-02-23T01:07:13.117Z,35.99
2023-02-23T01:10:22.651Z,39.24
2023-02-23T01:13:29.923Z,44.95
2023-02-23T01:16:39.195Z,59.56
2023-02-23T01:19:45.764Z,29.63
2023-02-23T01:22:54.272Z,34.62
2023-02-23T01:26:01.730Z,30.64
2023-02-23T01:29:11.304Z,33.18
2023-02-23T01:32:20.555Z,27.46
2023-02-23T01:35:27.245Z,25.55
2023-02-23T01:38:33.760Z,23.97
2023-02-23T01:41:42.616Z,23.59
2023-02-23T01:45:27.233Z,24.03
2023-02-23T01:48:43.582Z,23.74
2023-02-23T01:51:58.873Z,23.31
2023-02-23T01:55:06.322Z,24.81
2023-02-23T01:58:21.909Z,25.91
2023-02-23T02:01:29.755Z,22.83
2023-02-23T02:04:46.865Z,22.17
2023-02-23T02:07:59.252Z,21.05
2023-02-23T02:11:25.975Z,20.81
2023-02-23T02:14:35.088Z,20.75
2023-02-23T02:18:03.393Z,22.09
2023-02-23T02:22:12.564Z,22.54
2023-02-23T02:25:43.984Z,21.25
2023-02-23T02:29:43.146Z,24.39
2023-02-23T02:33:46.916Z,29.17
2023-02-23T02:37:36.172Z,24.41
2023-02-23T02:40:56.065Z,22.16
2023-02-23T02:44:18.192Z,22.63
2023-02-23T02:47:36.704Z,22.14
2023-02-23T02:50:56.405Z,22.39
2023-02-23T02:54:17.167Z,21.59
2023-02-23T02:57:29.997Z,21.90
2023-02-23T03:00:55.184Z,22.39
2023-02-23T03:04:18.491Z,21.31
2023-02-23T03:07:46.925Z,22.36
2023-02-23T03:11:18.031Z,22.52
2023-02-23T03:14:59.517Z,22.97
2023-02-23T03:18:52.144Z,22.00
2023-02-23T03:22:23.255Z,22.83
2023-02-23T03:25:58.502Z,22.23
2023-02-23T03:29:32.128Z,22.88
2023-02-23T03:33:03.584Z,22.50
2023-02-23T03:36:34.651Z,21.63
2023-02-23T03:40:07.541Z,22.24
2023-02-23T03:43:34.867Z,22.38
2023-02-23T03:47:02.055Z,22.46
2023-02-23T03:50:30.779Z,20.95
2023-02-23T03:54:00.064Z,21.89
2023-02-23T03:57:28.601Z,22.48
2023-02-23T04:00:57.678Z,22.05
2023-02-23T04:04:23.355Z,22.54
2023-02-23T04:07:42.137Z,23.90
2023-02-23T04:11:13.902Z,24.15
2023-02-23T04:14:30.099Z,23.73
2023-02-23T04:17:37.823Z,24.02
2023-02-23T04:20:47.999Z,23.64
2023-02-23T04:23:54.890Z,24.72
2023-02-23T04:27:01.724Z,25.49
2023-02-23T04:30:11.685Z,25.86
2023-02-23T04:33:18.675Z,25.66
2023-02-23T04:36:28.003Z,26.02
2023-02-23T04:39:34.059Z,25.94
2023-02-23T04:42:43.062Z,25.56
2023-02-23T04:45:50.877Z,26.22
2023-02-23T04:48:57.417Z,27.98
2023-02-23T04:52:06.269Z,28.46
2023-02-23T04:55:21.641Z,29.22
2023-02-23T04:58:27.893Z,33.65
2023-02-23T05:01:34.502Z,38.33
2023-02-23T05:04:40.496Z,37.41
2023-02-23T05:07:50.041Z,36.07
2023-02-23T05:10:55.810Z,34.46
2023-02-23T05:14:02.430Z,33.43
2023-02-23T05:17:08.827Z,32.88
2023-02-23T05:20:17.898Z,35.79
2023-02-23T05:23:26.369Z,36.63
2023-02-23T05:26:33.003Z,35.65
2023-02-23T05:29:39.123Z,33.90
2023-02-23T05:32:45.779Z,33.50
2023-02-23T05:35:51.937Z,30.62
2023-02-23T05:39:01.220Z,30.47
2023-02-23T05:42:07.324Z,30.89
2023-02-23T05:45:14.791Z,33.81
2023-02-23T05:48:20.559Z,35.20
2023-02-23T05:51:27.263Z,41.13
2023-02-23T05:54:35.725Z,42.67
2023-02-23T05:57:43.990Z,40.41
2023-02-23T06:00:49.782Z,38.94
2023-02-23T06:03:56.923Z,37.28
2023-02-23T06:07:02.872Z,36.24
2023-02-23T06:10:14.591Z,34.73
2023-02-23T06:13:21.478Z,34.97
2023-02-23T06:16:28.269Z,36.04
2023-02-23T06:19:34.308Z,35.61
2023-02-23T06:22:42.499Z,36.01
2023-02-23T06:25:51.168Z,34.77
2023-02-23T06:28:58.261Z,34.66
2023-02-23T06:32:04.180Z,35.48
2023-02-23T06:35:12.042Z,35.64
2023-02-23T06:38:18.093Z,34.49
2023-02-23T06:41:28.977Z,35.57
2023-02-23T06:44:35.641Z,35.46
2023-02-23T06:47:42.918Z,35.48
2023-02-23T06:50:48.675Z,34.54
2023-02-23T06:53:55.793Z,33.88
2023-02-23T06:57:04.653Z,33.45
2023-02-23T07:00:15.278Z,34.69
2023-02-23T07:03:22.131Z,33.21
2023-02-23T07:06:28.860Z,34.09
2023-02-23T07:09:34.804Z,35.29
2023-02-23T07:12:43.971Z,35.15
2023-02-23T07:15:49.845Z,35.35
2023-02-23T07:18:56.833Z,34.33
2023-02-23T07:22:03.127Z,35.26
2023-02-23T07:25:11.688Z,34.82
2023-02-23T07:28:21.288Z,35.64
2023-02-23T07:31:28.620Z,37.48
2023-02-23T07:34:34.465Z,39.25
2023-02-23T07:37:42.367Z,38.40
2023-02-23T07:40:48.217Z,41.28
2023-02-23T07:43:57.552Z,43.95
2023-02-23T07:47:03.640Z,41.35
2023-02-23T07:50:12.856Z,39.39
2023-02-23T07:53:19.040Z,39.50
2023-02-23T07:56:26.117Z,38.19
2023-02-23T07:59:37.465Z,37.12
2023-02-23T08:02:44.897Z,37.26
2023-02-23T08:05:51.036Z,35.84
2023-02-23T08:08:57.599Z,37.00
2023-02-23T08:12:04.006Z,36.76
2023-02-23T08:15:14.598Z,35.73
2023-02-23T08:18:20.647Z,36.14
2023-02-23T08:21:29.423Z,35.93
2023-02-23T08:24:35.760Z,37.54
2023-02-23T08:27:42.579Z,37.82
2023-02-23T08:30:51.040Z,38.27
2023-02-23T08:33:57.932Z,39.98
2023-02-23T08:37:03.852Z,40.44
2023-02-23T08:40:15.723Z,36.92
2023-02-23T08:43:21.491Z,36.47
2023-02-23T08:46:31.676Z,35.92
2023-02-23T08:49:37.527Z,37.37
2023-02-23T08:52:45.363Z,36.93
2023-02-23T08:56:00.823Z,36.69
2023-02-23T08:59:08.028Z,37.96
2023-02-23T09:02:18.325Z,37.58
2023-02-23T09:05:24.950Z,38.60
2023-02-23T09:08:30.904Z,37.99
2023-02-23T09:11:37.604Z,36.38
2023-02-23T09:14:43.332Z,35.71
2023-02-23T09:17:54.756Z,36.19
2023-02-23T09:21:00.817Z,34.72
2023-02-23T09:24:08.272Z,32.52
2023-02-23T09:27:15.126Z,31.89
2023-02-23T09:30:24.718Z,31.88
2023-02-23T09:33:33.062Z,30.13
2023-02-23T09:36:40.280Z,31.10
2023-02-23T09:39:46.507Z,29.47
2023-02-23T09:43:06.482Z,28.94
2023-02-23T09:46:31.143Z,30.02
2023-02-23T09:49:48.006Z,30.12
2023-02-23T09:53:03.360Z,29.12
2023-02-23T09:56:21.569Z,28.28
2023-02-23T09:59:29.511Z,28.18
2023-02-23T10:02:58.390Z,28.01
2023-02-23T10:06:14.350Z,28.63
2023-02-23T10:09:45.924Z,28.76
2023-02-23T10:13:08.282Z,28.62
2023-02-23T10:16:27.822Z,29.74
2023-02-23T10:19:50.808Z,29.73
2023-02-23T10:23:12.141Z,27.72
2023-02-23T10:26:27.052Z,29.56
2023-02-23T10:29:42.754Z,29.49
2023-02-23T10:32:59.272Z,28.20
2023-02-23T10:36:22.258Z,27.87
2023-02-23T10:39:32.899Z,28.95
2023-02-23T10:42:39.541Z,28.93
2023-02-23T10:45:51.540Z,29.04
2023-02-23T10:49:00.703Z,300.89
2023-02-23T10:52:07.608Z,70.05
2023-02-23T10:55:28.824Z,33.36
2023-02-23T10:58:43.882Z,26.88
2023-02-23T11:02:01.333Z,33.31
2023-02-23T11:05:10.329Z,121.24
2023-02-23T11:08:32.205Z,125.74
2023-02-23T11:11:40.720Z,24.69
2023-02-23T11:14:48.308Z,24.15
2023-02-23T11:18:01.309Z,24.13
2023-02-23T11:21:15.645Z,24.34
2023-02-23T11:24:31.055Z,41.51
2023-02-23T11:27:40.358Z,25.49
2023-02-23T11:30:46.477Z,26.43
2023-02-23T11:33:57.511Z,23.78
2023-02-23T11:37:08.688Z,24.36
2023-02-23T11:40:28.116Z,25.30
2023-02-23T11:43:36.822Z,25.96
2023-02-23T11:46:46.811Z,73.38
2023-02-23T11:49:55.345Z,23.23
2023-02-23T11:53:09.737Z,23.49
2023-02-23T11:56:25.865Z,23.91
2023-02-23T11:59:41.466Z,21.89
2023-02-23T12:02:56.661Z,23.52
2023-02-23T12:06:03.237Z,22.74
2023-02-23T12:09:25.677Z,28.55
2023-02-23T12:12:43.033Z,22.38
2023-02-23T12:16:00.333Z,21.74
2023-02-23T12:19:25.882Z,21.79
2023-02-23T12:22:41.777Z,20.94
2023-02-23T12:25:57.764Z,20.43
2023-02-23T12:29:20.586Z,21.10
2023-02-23T12:32:43.791Z,20.30
2023-02-23T12:36:01.016Z,20.23
2023-02-23T12:39:24.594Z,19.03
2023-02-23T12:42:48.324Z,20.29
2023-02-23T12:46:02.653Z,21.66
2023-02-23T12:49:25.704Z,27.98
2023-02-23T12:52:40.222Z,77.99
2023-02-23T12:56:07.672Z,35.46
2023-02-23T12:59:59.823Z,319.50
2023-02-23T13:03:45.010Z,21.02
2023-02-23T13:07:09.458Z,20.75
2023-02-23T13:10:32.666Z,20.44
2023-02-23T13:13:51.981Z,20.66
2023-02-23T13:17:11.708Z,23.82
2023-02-23T13:20:33.725Z,43.59
2023-02-23T13:23:57.873Z,19.87
2023-02-23T13:27:19.508Z,34.63
2023-02-23T13:30:25.439Z,20.86
2023-02-23T13:33:43.646Z,19.88
2023-02-23T13:36:52.390Z,26.67
2023-02-23T13:40:22.117Z,24.18
2023-02-23T13:43:37.633Z,19.86
2023-02-23T13:46:57.657Z,19.99
2023-02-23T13:50:19.350Z,22.64
2023-02-23T13:53:41.454Z,28.39
2023-02-23T13:56:57.071Z,31.29
2023-02-23T14:00:05.084Z,32.48
2023-02-23T14:03:34.240Z,28.57
2023-02-23T14:06:43.231Z,20.87
2023-02-23T14:10:01.677Z,22.54
2023-02-23T14:13:31.767Z,20.84
2023-02-23T14:16:37.756Z,22.98
2023-02-23T14:19:46.857Z,23.26
2023-02-23T14:23:33.356Z,27.54
2023-02-23T14:26:48.416Z,23.32
2023-02-23T14:30:25.611Z,58.58
2023-02-23T14:34:03.599Z,54.18
2023-02-23T14:37:25.283Z,89.94
2023-02-23T14:40:38.005Z,29.67
2023-02-23T14:43:48.641Z,23.60
2023-02-23T14:47:07.259Z,24.39
2023-02-23T14:50:25.803Z,26.15
2023-02-23T14:53:32.434Z,28.62
2023-02-23T14:56:48.338Z,55.52
2023-02-23T15:00:05.998Z,65.26
2023-02-23T15:03:22.595Z,25.84
2023-02-23T15:06:29.382Z,29.39
2023-02-23T15:09:44.021Z,44.45
2023-02-23T15:12:52.138Z,27.66
2023-02-23T15:16:01.880Z,29.84
2023-02-23T15:19:11.431Z,29.11
2023-02-23T15:22:30.003Z,28.54
2023-02-23T15:25:40.689Z,29.41
2023-02-23T15:28:49.100Z,29.56
2023-02-23T15:31:58.630Z,31.31
2023-02-23T15:35:12.078Z,30.33
2023-02-23T15:38:42.355Z,32.72
2023-02-23T15:41:52.832Z,37.21
2023-02-23T15:45:05.056Z,33.72
2023-02-23T15:48:21.095Z,32.19
2023-02-23T15:51:40.610Z,32.73
2023-02-23T15:55:00.507Z,37.78
2023-02-23T15:58:21.717Z,34.61
2023-02-23T16:01:30.700Z,35.47
2023-02-23T16:04:44.503Z,31.24
2023-02-23T16:08:07.205Z,34.91
2023-02-23T16:11:19.965Z,34.74
2023-02-23T16:14:30.632Z,37.35
2023-02-23T16:17:48.533Z,43.81
2023-02-23T16:20:58.879Z,44.32
2023-02-23T16:24:22.358Z,41.75
2023-02-23T16:27:32.751Z,40.16
2023-02-23T16:30:45.924Z,40.40
2023-02-23T16:33:58.844Z,44.59
2023-02-23T16:37:18.481Z,50.88
2023-02-23T16:40:27.616Z,55.56
2023-02-23T16:43:37.214Z,61.43
2023-02-23T16:47:01.665Z,58.25
2023-02-23T16:50:21.220Z,52.32
2023-02-23T16:53:27.500Z,49.07
2023-02-23T16:56:37.554Z,61.45
2023-02-23T16:59:43.746Z,73.98
2023-02-23T17:02:50.572Z,66.12
2023-02-23T17:05:57.580Z,79.91
2023-02-23T17:09:04.586Z,277.02
2023-02-23T17:12:18.507Z,316.43
2023-02-23T17:15:29.339Z,181.68
2023-02-23T17:18:43.116Z,520.82
2023-02-23T17:21:50.133Z,243.66
2023-02-23T17:24:55.942Z,234.30
2023-02-23T17:28:05.826Z,76.84
2023-02-23T17:31:12.084Z,103.72
2023-02-23T17:34:18.812Z,51.94
2023-02-23T17:37:25.180Z,67.60
2023-02-23T17:40:36.512Z,55.57
2023-02-23T17:43:45.219Z,54.30
2023-02-23T17:46:51.945Z,49.21
2023-02-23T17:49:57.855Z,48.39
2023-02-23T17:53:04.387Z,47.75
2023-02-23T17:56:11.943Z,109.56
2023-02-23T17:59:21.142Z,105.88
2023-02-23T18:02:27.910Z,99.91
2023-02-23T18:05:34.829Z,82.26
2023-02-23T18:08:43.986Z,99.19
2023-02-23T18:11:50.575Z,68.54
2023-02-23T18:15:01.798Z,63.38
2023-02-23T18:18:08.509Z,74.89
2023-02-23T18:21:19.298Z,84.09
2023-02-23T18:24:27.467Z,78.03
2023-02-23T18:27:33.534Z,77.97
2023-02-23T18:30:43.744Z,72.53
2023-02-23T18:33:53.112Z,68.39
2023-02-23T18:37:03.760Z,70.59
2023-02-23T18:40:21.625Z,94.48
2023-02-23T18:43:28.496Z,104.37
2023-02-23T18:46:37.779Z,80.49
2023-02-23T18:49:44.371Z,86.29
2023-02-23T18:52:53.216Z,101.51
2023-02-23T18:56:08.941Z,123.48
2023-02-23T18:59:15.554Z,126.93
2023-02-23T19:02:25.443Z,110.42
2023-02-23T19:05:31.584Z,108.14
2023-02-23T19:08:38.361Z,112.98
2023-02-23T19:11:46.509Z,105.31
2023-02-23T19:14:54.388Z,97.12
2023-02-23T19:18:02.860Z,105.63
2023-02-23T19:21:09.939Z,97.87
2023-02-23T19:24:16.174Z,94.19
2023-02-23T19:27:23.660Z,103.38
2023-02-23T19:30:29.644Z,99.50
2023-02-23T19:33:41.181Z,87.85
2023-02-23T19:36:47.218Z,100.31
2023-02-23T19:39:54.145Z,82.18
2023-02-23T19:43:00.649Z,74.21
2023-02-23T19:46:08.248Z,72.05
2023-02-23T19:49:16.709Z,75.14
2023-02-23T19:52:24.899Z,76.77
2023-02-23T19:55:31.155Z,74.39
2023-02-23T19:58:38.957Z,81.29
2023-02-23T20:01:45.988Z,76.93
2023-02-23T20:04:55.297Z,81.33
2023-02-23T20:08:01.266Z,116.01
2023-02-23T20:11:09.860Z,109.36
2023-02-23T20:14:15.731Z,226.81
2023-02-23T20:17:23.888Z,214.27
2023-02-23T20:20:32.296Z,119.25
2023-02-23T20:23:39.016Z,165.56
2023-02-23T20:26:45.432Z,139.95
2023-02-23T20:29:53.892Z,115.99
2023-02-23T20:33:00.557Z,94.35
2023-02-23T20:36:12.264Z,88.39
2023-02-23T20:39:19.271Z,105.07
2023-02-23T20:42:28.542Z,79.88
2023-02-23T20:45:34.695Z,73.58
2023-02-23T20:48:41.391Z,69.05
2023-02-23T20:51:51.987Z,65.51
2023-02-23T20:54:59.374Z,60.06
2023-02-23T20:58:06.033Z,53.56
2023-02-23T21:01:19.343Z,58.81
2023-02-23T21:04:26.822Z,65.21
2023-02-23T21:07:36.106Z,46.17
2023-02-23T21:10:43.362Z,52.65
2023-02-23T21:13:50.347Z,50.58
2023-02-23T21:16:56.098Z,60.86
2023-02-23T21:20:02.662Z,49.25
2023-02-23T21:23:11.203Z,55.38
2023-02-23T21:26:21.814Z,53.11
2023-02-23T21:29:28.136Z,49.39
2023-02-23T21:32:41.452Z,45.67
2023-02-23T21:35:47.400Z,41.45
2023-02-23T21:38:56.750Z,41.85
2023-02-23T21:42:04.346Z,43.73
2023-02-23T21:45:14.085Z,44.66
2023-02-23T21:48:22.767Z,44.30
2023-02-23T21:51:30.695Z,46.11
2023-02-23T21:54:39.764Z,47.81
2023-02-23T21:57:47.996Z,49.91
2023-02-23T22:00:53.837Z,46.36
2023-02-23T22:04:01.464Z,44.27
2023-02-23T22:07:08.295Z,44.46
2023-02-23T22:10:17.838Z,44.73
2023-02-23T22:13:23.570Z,45.40
2023-02-23T22:16:33.446Z,43.49
2023-02-23T22:19:39.155Z,44.80
2023-02-23T22:22:45.783Z,42.61
2023-02-23T22:25:54.132Z,40.14
2023-02-23T22:29:00.794Z,38.36
2023-02-23T22:32:06.720Z,42.67
2023-02-23T22:35:14.709Z,41.15
2023-02-23T22:38:21.996Z,38.65
2023-02-23T22:41:32.076Z,39.39
2023-02-23T22:44:41.541Z,37.26
2023-02-23T22:47:48.337Z,35.86
2023-02-23T22:50:54.665Z,38.28
2023-02-23T22:54:01.269Z,36.75
2023-02-23T22:57:09.914Z,36.89
2023-02-23T23:00:21.364Z,35.95
2023-02-23T23:03:27.632Z,34.40
2023-02-23T23:06:34.476Z,35.70
2023-02-23T23:09:40.266Z,36.73
2023-02-23T23:12:49.670Z,37.12
2023-02-23T23:16:07.474Z,37.89
2023-02-23T23:19:16.233Z,38.11
2023-02-23T23:22:22.092Z,37.15
2023-02-23T23:25:29.702Z,35.65
2023-02-23T23:28:40.732Z,32.78
2023-02-23T23:31:48.078Z,28.69
2023-02-23T23:34:57.492Z,27.64
2023-02-23T23:38:06.289Z,26.59
2023-02-23T23:41:14.309Z,25.22
2023-02-23T23:44:29.435Z,24.64
2023-02-23T23:47:35.487Z,24.69
2023-02-23T23:50:42.484Z,24.61
2023-02-23T23:53:48.253Z,23.77
2023-02-23T23:56:55.295Z,23.96
